createdAt,value
2019-03-13T00:02:28.555Z,71.50
2019-03-13T00:04:58.876Z,71.70
2019-03-13T00:07:29.008Z,72.00
2019-03-13T00:09:59.088Z,72.30
2019-03-13T00:12:30.100Z,71.30
2019-03-13T00:15:00.260Z,70.80
2019-03-13T00:17:30.383Z,70.50
2019-03-13T00:20:00.439Z,70.40
2019-03-13T00:22:30.707Z,70.60
2019-03-13T00:25:00.745Z,70.80
2019-03-13T00:27:30.774Z,71.10
2019-03-13T00:30:01.019Z,72.10
2019-03-13T00:32:32.654Z,71.40
2019-03-13T00:35:02.708Z,71.90
2019-03-13T00:37:32.799Z,72.00
2019-03-13T00:40:02.947Z,72.20
2019-03-13T00:42:33.024Z,72.70
2019-03-13T00:45:03.119Z,73.10
2019-03-13T00:47:33.207Z,73.60
2019-03-13T00:50:03.289Z,74.40
2019-03-13T00:52:33.303Z,73.20
2019-03-13T00:55:03.631Z,73.20
2019-03-13T00:57:33.718Z,73.20
2019-03-13T01:00:04.327Z,73.10
2019-03-13T01:02:37.434Z,72.90
2019-03-13T01:05:30.532Z,73.10
2019-03-13T01:08:00.607Z,73.80
2019-03-13T01:10:30.706Z,73.40
2019-03-13T01:13:00.766Z,73.80
2019-03-13T01:15:30.919Z,73.80
2019-03-13T01:18:00.967Z,73.30
2019-03-13T01:20:31.076Z,72.20
2019-03-13T01:23:02.316Z,72.10
2019-03-13T01:25:32.417Z,72.70
2019-03-13T01:28:02.495Z,73.30
2019-03-13T01:30:41.825Z,73.90
2019-03-13T01:33:13.995Z,74.20
2019-03-13T01:35:48.457Z,74.20
2019-03-13T01:38:18.615Z,73.70
2019-03-13T01:40:48.669Z,73.20
2019-03-13T01:43:18.733Z,72.90
2019-03-13T01:45:48.810Z,72.70
2019-03-13T01:48:18.838Z,72.90
2019-03-13T01:50:48.867Z,72.90
2019-03-13T01:53:18.874Z,73.10
2019-03-13T01:55:48.882Z,73.40
2019-03-13T01:58:18.888Z,73.50
2019-03-13T02:00:49.039Z,73.50
2019-03-13T02:03:19.154Z,73.50
2019-03-13T02:05:49.458Z,73.30
2019-03-13T02:08:20.391Z,73.20
2019-03-13T02:10:50.493Z,74.00
2019-03-13T02:13:20.481Z,73.20
2019-03-13T02:15:50.799Z,74.00
2019-03-13T02:18:20.878Z,72.90
2019-03-13T02:20:50.964Z,72.80
2019-03-13T02:23:21.035Z,72.70
2019-03-13T02:25:51.095Z,72.50
2019-03-13T02:28:21.108Z,72.20
2019-03-13T02:30:51.307Z,71.80
2019-03-13T02:33:21.467Z,71.30
2019-03-13T02:35:51.651Z,70.90
2019-03-13T02:38:21.675Z,70.40
2019-03-13T02:40:51.821Z,70.20
2019-03-13T02:43:21.842Z,70.00
2019-03-13T02:45:51.931Z,69.80
2019-03-13T02:48:23.200Z,69.50
2019-03-13T02:50:53.246Z,69.20
2019-03-13T02:53:23.364Z,69.00
2019-03-13T02:55:53.476Z,69.10
2019-03-13T02:58:23.538Z,69.00
2019-03-13T03:01:25.095Z,69.10
2019-03-13T03:03:56.917Z,69.20
2019-03-13T03:06:27.065Z,69.40
2019-03-13T03:08:57.100Z,69.50
2019-03-13T03:11:27.144Z,69.80
2019-03-13T03:13:57.340Z,69.70
2019-03-13T03:16:27.396Z,69.90
2019-03-13T03:18:57.487Z,70.30
2019-03-13T03:21:27.568Z,70.80
2019-03-13T03:23:57.752Z,71.20
2019-03-13T03:26:27.795Z,71.80
2019-03-13T03:28:57.828Z,72.00
2019-03-13T03:31:27.871Z,72.20
2019-03-13T03:34:02.744Z,72.40
2019-03-13T03:36:33.100Z,72.20
2019-03-13T03:39:04.937Z,72.10
2019-03-13T03:41:36.731Z,71.90
2019-03-13T03:44:06.866Z,71.90
2019-03-13T03:46:36.984Z,72.00
2019-03-13T03:49:07.047Z,72.20
2019-03-13T03:51:38.204Z,72.20
2019-03-13T03:54:08.243Z,72.30
2019-03-13T03:56:38.262Z,72.50
2019-03-13T03:59:08.312Z,72.50
2019-03-13T04:01:38.407Z,72.70
2019-03-13T04:04:08.467Z,72.80
2019-03-13T04:06:38.615Z,73.20
2019-03-13T04:09:08.643Z,73.30
2019-03-13T04:11:38.893Z,73.60
2019-03-13T04:14:09.047Z,73.80
2019-03-13T04:16:39.163Z,74.20
2019-03-13T04:19:09.213Z,74.20
2019-03-13T04:21:39.295Z,74.50
2019-03-13T04:24:09.483Z,74.80
2019-03-13T04:26:39.611Z,76.20
2019-03-13T04:29:09.840Z,75.50
2019-03-13T04:31:39.919Z,76.50
2019-03-13T04:34:10.050Z,75.60
2019-03-13T04:36:40.126Z,75.70
2019-03-13T04:39:10.250Z,75.80
2019-03-13T04:41:40.362Z,75.80
2019-03-13T04:44:10.439Z,75.80
2019-03-13T04:46:40.479Z,75.90
2019-03-13T04:49:10.518Z,76.30
2019-03-13T04:51:40.547Z,76.40
2019-03-13T04:54:10.650Z,76.60
2019-03-13T04:56:40.767Z,76.80
2019-03-13T04:59:10.859Z,76.80
2019-03-13T05:01:40.890Z,76.70
2019-03-13T05:04:10.951Z,76.80
2019-03-13T05:06:41.018Z,76.80
2019-03-13T05:09:13.585Z,76.60
2019-03-13T05:11:43.731Z,76.70
2019-03-13T05:14:13.864Z,76.50
2019-03-13T05:16:43.940Z,76.50
2019-03-13T05:19:14.140Z,76.30
2019-03-13T05:21:44.195Z,76.30
2019-03-13T05:24:14.249Z,76.40
2019-03-13T05:26:44.323Z,76.50
2019-03-13T05:29:14.345Z,76.50
2019-03-13T05:31:44.486Z,76.60
2019-03-13T05:34:14.555Z,76.50
2019-03-13T05:36:44.626Z,76.70
2019-03-13T05:39:14.728Z,76.70
2019-03-13T05:41:44.774Z,76.80
2019-03-13T05:44:14.795Z,76.80
2019-03-13T05:46:44.904Z,76.70
2019-03-13T05:49:15.087Z,76.60
2019-03-13T05:51:45.219Z,76.50
2019-03-13T05:54:15.281Z,76.40
2019-03-13T05:56:45.447Z,76.30
2019-03-13T05:59:15.559Z,76.30
2019-03-13T06:01:45.683Z,76.20
2019-03-13T06:04:15.775Z,76.30
2019-03-13T06:06:45.912Z,76.50
2019-03-13T06:09:15.949Z,76.50
2019-03-13T06:11:46.009Z,76.50
2019-03-13T06:14:16.029Z,76.30
2019-03-13T06:16:46.170Z,76.10
2019-03-13T06:19:16.306Z,76.10
2019-03-13T06:21:46.377Z,75.70
2019-03-13T06:24:17.440Z,75.40
2019-03-13T06:26:47.518Z,75.00
2019-03-13T06:29:17.592Z,74.80
2019-03-13T06:31:48.630Z,74.50
2019-03-13T06:34:18.687Z,74.40
2019-03-13T06:36:48.736Z,73.80
2019-03-13T06:39:18.782Z,73.60
2019-03-13T06:41:48.959Z,73.40
2019-03-13T06:44:19.138Z,73.60
2019-03-13T06:46:49.177Z,73.70
2019-03-13T06:49:19.190Z,73.50
2019-03-13T06:51:49.267Z,73.40
2019-03-13T06:54:20.379Z,73.30
2019-03-13T06:56:50.411Z,73.30
2019-03-13T06:59:38.550Z,73.50
2019-03-13T07:02:14.987Z,73.80
2019-03-13T07:05:03.101Z,73.60
2019-03-13T07:07:52.199Z,72.90
2019-03-13T07:10:39.827Z,72.00
2019-03-13T07:13:19.191Z,70.90
2019-03-13T07:16:11.717Z,70.00
2019-03-13T07:18:56.103Z,69.50
2019-03-13T07:21:40.419Z,69.40
2019-03-13T07:24:28.103Z,69.30
2019-03-13T07:27:14.074Z,69.30
2019-03-13T07:30:09.476Z,69.10
2019-03-13T07:32:56.847Z,68.70
2019-03-13T07:35:33.036Z,68.50
2019-03-13T07:38:20.727Z,68.60
2019-03-13T07:40:59.397Z,68.70
2019-03-13T07:43:47.160Z,68.90
2019-03-13T07:46:45.010Z,69.30
2019-03-13T07:49:34.115Z,69.10
2019-03-13T07:52:23.236Z,68.80
2019-03-13T07:55:24.373Z,68.20
2019-03-13T07:58:06.459Z,68.20
2019-03-13T08:00:54.459Z,68.00
2019-03-13T08:03:49.465Z,68.00
2019-03-13T08:06:44.631Z,67.70
2019-03-13T08:09:36.527Z,67.50
2019-03-13T08:12:28.635Z,66.10
2019-03-13T08:15:20.755Z,65.40
2019-03-13T08:18:12.627Z,62.90
2019-03-13T08:21:01.723Z,59.80
2019-03-13T08:23:58.614Z,59.20
2019-03-13T08:26:49.988Z,59.90
2019-03-13T08:29:48.405Z,61.30
2019-03-13T08:32:26.583Z,62.00
2019-03-13T08:35:15.696Z,62.40
2019-03-13T08:37:55.523Z,62.70
2019-03-13T08:40:44.655Z,63.20
2019-03-13T08:43:30.448Z,63.50
2019-03-13T08:46:10.945Z,63.10
2019-03-13T08:48:58.391Z,62.90
2019-03-13T08:51:47.496Z,62.80
2019-03-13T08:54:36.691Z,62.70
2019-03-13T08:57:28.576Z,62.60
2019-03-13T09:00:24.661Z,62.60
2019-03-13T09:03:08.336Z,62.80
2019-03-13T09:05:57.467Z,62.90
2019-03-13T09:08:58.479Z,62.70
2019-03-13T09:11:56.937Z,63.00
2019-03-13T09:14:46.100Z,62.80
2019-03-13T09:17:32.755Z,61.90
2019-03-13T09:20:21.855Z,60.90
2019-03-13T09:23:01.527Z,61.10
2019-03-13T09:25:44.200Z,61.20
2019-03-13T09:28:45.402Z,61.10
2019-03-13T09:31:50.768Z,60.50
2019-03-13T09:34:42.531Z,60.00
2019-03-13T09:37:19.276Z,60.10
2019-03-13T09:40:14.487Z,59.90
2019-03-13T09:43:00.265Z,59.90
2019-03-13T09:45:37.199Z,59.70
2019-03-13T09:48:25.308Z,59.40
2019-03-13T09:51:17.586Z,59.00
2019-03-13T09:53:57.272Z,59.20
2019-03-13T09:56:56.438Z,59.50
2019-03-13T09:59:49.941Z,59.50
2019-03-13T10:02:38.753Z,59.10
2019-03-13T10:05:43.347Z,59.20
2019-03-13T10:08:38.446Z,59.40
2019-03-13T10:11:36.596Z,59.60
2019-03-13T10:14:28.789Z,59.60
2019-03-13T10:17:11.076Z,60.10
2019-03-13T10:20:07.628Z,60.10
2019-03-13T10:23:01.207Z,60.10
2019-03-13T10:25:49.092Z,59.90
2019-03-13T10:28:34.058Z,59.50
2019-03-13T10:31:13.735Z,58.80
2019-03-13T10:33:50.320Z,58.40
2019-03-13T10:36:34.791Z,57.80
2019-03-13T10:39:37.948Z,57.50
2019-03-13T10:42:32.998Z,57.40
2019-03-13T10:45:25.367Z,57.10
2019-03-13T10:48:06.596Z,56.80
2019-03-13T10:50:53.314Z,56.70
2019-03-13T10:53:30.454Z,57.00
2019-03-13T10:56:20.267Z,56.20
2019-03-13T10:59:20.462Z,55.50
2019-03-13T11:02:21.675Z,54.90
2019-03-13T11:05:29.056Z,54.90
2019-03-13T11:08:21.436Z,54.80
2019-03-13T11:11:05.708Z,55.20
2019-03-13T11:13:53.479Z,55.20
2019-03-13T11:16:45.359Z,55.60
2019-03-13T11:19:52.911Z,55.40
2019-03-13T11:22:32.247Z,56.80
2019-03-13T11:25:08.678Z,55.90
2019-03-13T11:27:44.973Z,55.90
2019-03-13T11:30:46.661Z,56.10
2019-03-13T11:33:35.681Z,56.40
2019-03-13T11:36:12.047Z,55.90
2019-03-13T11:39:04.094Z,55.20
2019-03-13T11:41:47.200Z,54.70
2019-03-13T11:44:31.223Z,55.00
2019-03-13T11:47:15.197Z,55.30
2019-03-13T11:50:10.146Z,55.60
2019-03-13T11:52:59.248Z,55.60
2019-03-13T11:55:51.322Z,55.10
2019-03-13T11:58:44.723Z,54.90
2019-03-13T12:01:45.650Z,54.90
2019-03-13T12:04:30.862Z,55.30
2019-03-13T12:07:10.347Z,55.70
2019-03-13T12:09:59.601Z,55.40
2019-03-13T12:12:57.955Z,55.20
2019-03-13T12:15:53.202Z,55.00
2019-03-13T12:18:42.278Z,55.00
2019-03-13T12:21:30.143Z,55.30
2019-03-13T12:24:39.311Z,55.60
2019-03-13T12:27:24.602Z,55.50
2019-03-13T12:30:19.418Z,54.90
2019-03-13T12:33:08.763Z,54.70
2019-03-13T12:36:00.960Z,54.90
2019-03-13T12:38:42.594Z,55.10
2019-03-13T12:41:30.831Z,55.30
2019-03-13T12:44:09.110Z,55.30
2019-03-13T12:47:07.280Z,55.00
2019-03-13T12:49:45.121Z,54.90
2019-03-13T12:52:38.759Z,55.70
2019-03-13T12:55:24.474Z,56.10
2019-03-13T12:58:32.067Z,56.20
2019-03-13T13:01:13.683Z,56.10
2019-03-13T13:04:18.374Z,56.30
2019-03-13T13:07:06.114Z,56.20
2019-03-13T13:09:54.259Z,56.20
2019-03-13T13:12:52.715Z,56.30
2019-03-13T13:15:46.276Z,56.70
2019-03-13T13:18:38.494Z,57.20
2019-03-13T13:21:08.671Z,58.40
2019-03-13T13:23:38.740Z,59.50
2019-03-13T13:26:08.799Z,60.10
2019-03-13T13:28:38.860Z,60.10
2019-03-13T13:31:08.925Z,60.00
2019-03-13T13:33:39.034Z,59.80
2019-03-13T13:36:10.187Z,59.00
2019-03-13T13:38:40.287Z,58.40
2019-03-13T13:41:10.423Z,57.90
2019-03-13T13:43:40.643Z,57.80
2019-03-13T13:46:30.785Z,57.70
2019-03-13T13:49:01.050Z,57.60
2019-03-13T13:51:32.716Z,57.60
2019-03-13T13:54:03.087Z,57.50
2019-03-13T13:56:33.302Z,57.50
2019-03-13T13:59:03.424Z,57.70
2019-03-13T14:01:34.526Z,58.10
2019-03-13T14:04:04.646Z,58.60
2019-03-13T14:06:34.869Z,59.50
2019-03-13T14:09:06.178Z,60.90
2019-03-13T14:11:37.946Z,61.20
2019-03-13T14:14:09.124Z,61.20
2019-03-13T14:16:39.221Z,60.90
2019-03-13T14:19:09.403Z,60.80
2019-03-13T14:21:39.487Z,61.40
2019-03-13T14:24:09.551Z,62.30
2019-03-13T14:26:39.707Z,63.10
2019-03-13T14:29:09.891Z,64.10
2019-03-13T14:31:40.106Z,65.10
2019-03-13T14:34:10.280Z,65.60
2019-03-13T14:36:40.533Z,65.90
2019-03-13T14:39:10.700Z,65.60
2019-03-13T14:41:40.810Z,66.10
2019-03-13T14:44:10.845Z,65.70
2019-03-13T14:46:40.984Z,65.60
2019-03-13T14:49:11.131Z,65.60
2019-03-13T14:51:41.308Z,65.50
2019-03-13T14:54:11.398Z,65.60
2019-03-13T14:56:41.590Z,65.60
2019-03-13T14:59:11.694Z,65.90
2019-03-13T15:01:41.920Z,65.90
2019-03-13T15:04:12.066Z,65.90
2019-03-13T15:06:42.244Z,66.00
2019-03-13T15:09:12.315Z,65.80
2019-03-13T15:11:42.397Z,65.90
2019-03-13T15:14:12.575Z,65.90
2019-03-13T15:16:54.347Z,65.70
2019-03-13T15:19:24.392Z,65.80
2019-03-13T15:21:54.583Z,65.80
2019-03-13T15:24:24.699Z,65.70
2019-03-13T15:26:54.847Z,65.70
2019-03-13T15:29:24.987Z,65.60
2019-03-13T15:31:55.063Z,65.60
2019-03-13T15:34:25.235Z,65.70
2019-03-13T15:36:55.374Z,66.00
2019-03-13T15:39:25.481Z,66.60
2019-03-13T15:41:55.559Z,67.40
2019-03-13T15:44:25.766Z,68.30
2019-03-13T15:46:56.011Z,69.70
2019-03-13T15:49:26.071Z,71.10
2019-03-13T15:51:56.290Z,72.10
2019-03-13T15:54:26.363Z,72.10
2019-03-13T15:56:56.499Z,71.80
2019-03-13T15:59:26.625Z,71.70
2019-03-13T16:01:56.726Z,72.00
2019-03-13T16:04:26.788Z,71.90
2019-03-13T16:06:58.570Z,72.10
2019-03-13T16:09:28.751Z,73.00
2019-03-13T16:11:58.915Z,74.40
2019-03-13T16:14:30.042Z,75.70
2019-03-13T16:17:00.273Z,76.50
2019-03-13T16:19:30.340Z,76.90
2019-03-13T16:22:00.565Z,77.40
2019-03-13T16:24:30.714Z,78.00
2019-03-13T16:27:01.055Z,77.60
2019-03-13T16:29:32.159Z,77.10
2019-03-13T16:32:02.320Z,76.70
2019-03-13T16:34:33.869Z,76.30
2019-03-13T16:37:04.011Z,76.10
2019-03-13T16:39:34.172Z,76.10
2019-03-13T16:42:04.365Z,75.90
2019-03-13T16:44:34.419Z,75.70
2019-03-13T16:47:04.587Z,75.90
2019-03-13T16:49:34.705Z,76.30
2019-03-13T16:52:05.069Z,76.70
2019-03-13T16:54:35.149Z,78.00
2019-03-13T16:57:05.379Z,78.90
2019-03-13T16:59:35.573Z,80.20
2019-03-13T17:02:05.627Z,81.50
2019-03-13T17:04:35.777Z,83.00
2019-03-13T17:07:05.867Z,84.30
2019-03-13T17:09:36.064Z,83.60
2019-03-13T17:12:06.183Z,83.60
2019-03-13T17:14:36.291Z,83.40
2019-03-13T17:17:06.433Z,83.10
2019-03-13T17:19:36.666Z,83.20
2019-03-13T17:22:06.767Z,83.40
2019-03-13T17:24:37.018Z,83.10
2019-03-13T17:27:07.252Z,82.90
2019-03-13T17:29:37.399Z,82.80
2019-03-13T17:32:07.509Z,83.00
2019-03-13T17:34:37.632Z,82.60
2019-03-13T17:37:08.019Z,82.30
2019-03-13T17:39:38.252Z,81.80
2019-03-13T17:42:08.468Z,81.80
2019-03-13T17:44:38.701Z,81.50
2019-03-13T17:47:08.756Z,81.10
2019-03-13T17:49:38.913Z,81.20
2019-03-13T17:52:09.023Z,81.30
2019-03-13T17:54:40.176Z,81.00
2019-03-13T17:57:10.280Z,80.30
2019-03-13T17:59:40.438Z,79.90
2019-03-13T18:02:10.567Z,79.40
2019-03-13T18:04:40.739Z,79.10
2019-03-13T18:07:10.811Z,78.70
2019-03-13T18:09:41.006Z,78.60
2019-03-13T18:12:12.082Z,78.60
2019-03-13T18:14:42.279Z,78.60
2019-03-13T18:17:12.416Z,79.10
2019-03-13T18:19:42.531Z,80.10
2019-03-13T18:22:12.643Z,80.80
2019-03-13T18:24:42.784Z,81.60
2019-03-13T18:27:12.821Z,82.30
2019-03-13T18:29:44.338Z,83.00
2019-03-13T18:32:14.456Z,83.90
2019-03-13T18:34:44.907Z,84.60
2019-03-13T18:37:15.028Z,85.30
2019-03-13T18:39:45.159Z,85.80
2019-03-13T18:42:15.263Z,86.70
2019-03-13T18:44:45.393Z,87.60
2019-03-13T18:47:15.499Z,88.40
2019-03-13T18:49:45.548Z,89.00
2019-03-13T18:52:15.719Z,89.50
2019-03-13T18:54:45.809Z,89.70
2019-03-13T18:57:15.939Z,90.00
2019-03-13T18:59:46.082Z,90.70
2019-03-13T19:02:16.195Z,91.10
2019-03-13T19:04:46.278Z,91.20
2019-03-13T19:07:16.441Z,91.10
2019-03-13T19:09:46.570Z,91.20
2019-03-13T19:12:16.655Z,91.00
2019-03-13T19:14:46.739Z,91.00
2019-03-13T19:17:16.805Z,91.00
2019-03-13T19:19:46.860Z,91.10
2019-03-13T19:22:16.939Z,91.20
2019-03-13T19:24:47.059Z,91.40
2019-03-13T19:27:17.163Z,91.30
2019-03-13T19:29:47.243Z,91.10
2019-03-13T19:32:17.301Z,91.00
2019-03-13T19:34:47.396Z,90.80
2019-03-13T19:37:17.509Z,90.60
2019-03-13T19:39:47.620Z,90.30
2019-03-13T19:42:17.727Z,90.20
2019-03-13T19:44:48.952Z,90.00
2019-03-13T19:47:19.041Z,89.70
2019-03-13T19:49:49.123Z,90.10
2019-03-13T19:52:19.241Z,89.70
2019-03-13T19:54:49.323Z,89.20
2019-03-13T19:57:19.424Z,88.30
2019-03-13T19:59:49.495Z,88.50
2019-03-13T20:02:19.663Z,88.80
2019-03-13T20:04:49.765Z,89.10
2019-03-13T20:07:19.859Z,89.70
2019-03-13T20:09:50.047Z,90.00
2019-03-13T20:12:21.236Z,90.40
2019-03-13T20:14:51.339Z,90.60
2019-03-13T20:17:21.411Z,90.90
2019-03-13T20:19:52.395Z,91.20
2019-03-13T20:22:22.907Z,91.50
2019-03-13T20:24:53.303Z,91.70
2019-03-13T20:27:23.373Z,91.80
2019-03-13T20:29:53.576Z,91.90
2019-03-13T20:32:23.724Z,92.00
2019-03-13T20:34:53.762Z,92.10
2019-03-13T20:37:23.824Z,92.10
2019-03-13T20:39:53.905Z,92.20
2019-03-13T20:42:24.074Z,92.20
2019-03-13T20:44:54.266Z,92.20
2019-03-13T20:47:24.439Z,91.90
2019-03-13T20:49:54.469Z,91.60
2019-03-13T20:52:24.624Z,91.00
2019-03-13T20:54:54.751Z,90.90
2019-03-13T20:57:24.818Z,91.10
2019-03-13T20:59:54.927Z,91.00
2019-03-13T21:02:25.068Z,91.20
2019-03-13T21:04:55.100Z,91.00
2019-03-13T21:07:25.267Z,91.20
2019-03-13T21:09:55.687Z,90.60
2019-03-13T21:12:25.932Z,90.70
2019-03-13T21:14:56.164Z,90.70
2019-03-13T21:17:26.346Z,90.70
2019-03-13T21:19:56.554Z,90.60
2019-03-13T21:22:26.709Z,90.70
2019-03-13T21:24:56.836Z,90.70
2019-03-13T21:27:26.898Z,91.00
2019-03-13T21:29:57.105Z,91.20
2019-03-13T21:32:27.281Z,91.20
2019-03-13T21:34:58.463Z,91.30
2019-03-13T21:37:28.528Z,91.50
2019-03-13T21:39:58.565Z,91.60
2019-03-13T21:42:28.707Z,91.60
2019-03-13T21:44:58.737Z,91.80
2019-03-13T21:47:28.769Z,91.90
2019-03-13T21:49:58.786Z,91.50
2019-03-13T21:52:28.855Z,91.50
2019-03-13T21:54:58.947Z,91.50
2019-03-13T21:57:29.379Z,91.50
2019-03-13T22:00:00.407Z,91.30
2019-03-13T22:02:33.104Z,91.00
2019-03-13T22:05:02.307Z,90.80
2019-03-13T22:07:33.499Z,90.50
2019-03-13T22:10:05.595Z,90.70
2019-03-13T22:12:35.657Z,90.80
2019-03-13T22:15:06.623Z,91.10
2019-03-13T22:17:36.672Z,91.40
2019-03-13T22:20:07.021Z,91.70
2019-03-13T22:22:37.151Z,91.90
2019-03-13T22:25:07.730Z,92.10
2019-03-13T22:27:37.816Z,92.20
2019-03-13T22:30:11.830Z,92.30
2019-03-13T22:32:41.987Z,92.50
2019-03-13T22:35:12.130Z,92.60
2019-03-13T22:37:42.243Z,92.80
2019-03-13T22:40:12.587Z,92.70
2019-03-13T22:42:44.717Z,92.80
2019-03-13T22:45:14.517Z,92.80
2019-03-13T22:47:44.691Z,92.70
2019-03-13T22:50:17.250Z,92.80
2019-03-13T22:52:47.460Z,92.90
2019-03-13T22:55:17.706Z,93.00
2019-03-13T22:57:47.783Z,93.20
2019-03-13T23:01:06.881Z,93.30
2019-03-13T23:03:40.406Z,93.40
2019-03-13T23:06:09.469Z,93.60
2019-03-13T23:08:39.725Z,93.70
2019-03-13T23:11:09.879Z,93.70
2019-03-13T23:13:39.953Z,93.70
2019-03-13T23:16:10.043Z,93.80
2019-03-13T23:18:40.211Z,93.70
2019-03-13T23:21:10.499Z,93.60
2019-03-13T23:23:40.863Z,93.50
2019-03-13T23:26:11.000Z,93.80
2019-03-13T23:28:41.961Z,93.30
2019-03-13T23:31:11.986Z,93.20
2019-03-13T23:33:42.158Z,93.30
2019-03-13T23:36:12.177Z,93.20
2019-03-13T23:38:42.168Z,93.10
2019-03-13T23:41:12.246Z,93.00
2019-03-13T23:43:42.436Z,92.90
2019-03-13T23:46:12.493Z,92.90
2019-03-13T23:48:43.114Z,92.70
2019-03-13T23:51:13.300Z,92.60
2019-03-13T23:53:44.392Z,92.60
2019-03-13T23:56:14.442Z,92.80
2019-03-13T23:58:44.462Z,92.90
